sensor_id;sensor_type;location;lat;lon;timestamp;pressure;altitude;pressure_sealevel;temperature
74043;BMP280;62384;53.600;10.040;2023-02-02T00:00:34;60371.44;;;6.32
74043;BMP280;62384;53.600;10.040;2023-02-02T00:02:59;58440.34;;;6.29
74043;BMP280;62384;53.600;10.040;2023-02-02T00:05:25;58095.03;;;6.25
74043;BMP280;62384;53.600;10.040;2023-02-02T00:07:50;59147.13;;;6.26
74043;BMP280;62384;53.600;10.040;2023-02-02T00:10:16;59379.25;;;6.21
74043;BMP280;62384;53.600;10.040;2023-02-02T00:12:41;58601.13;;;6.24
74043;BMP280;62384;53.600;10.040;2023-02-02T00:15:07;58741.22;;;6.25
74043;BMP280;62384;53.600;10.040;2023-02-02T00:17:32;59551.34;;;6.29
74043;BMP280;62384;53.600;10.040;2023-02-02T00:19:57;59042.00;;;6.29
74043;BMP280;62384;53.600;10.040;2023-02-02T00:22:23;59056.41;;;6.31
74043;BMP280;62384;53.600;10.040;2023-02-02T00:24:48;60677.28;;;6.33
74043;BMP280;62384;53.600;10.040;2023-02-02T00:27:13;61103.69;;;6.33
74043;BMP280;62384;53.600;10.040;2023-02-02T00:29:38;61437.03;;;6.41
74043;BMP280;62384;53.600;10.040;2023-02-02T00:32:04;60926.97;;;6.27
74043;BMP280;62384;53.600;10.040;2023-02-02T00:34:29;61181.84;;;6.38
74043;BMP280;62384;53.600;10.040;2023-02-02T00:36:54;60829.50;;;6.41
74043;BMP280;62384;53.600;10.040;2023-02-02T00:39:22;60608.66;;;6.44
74043;BMP280;62384;53.600;10.040;2023-02-02T00:41:50;60425.44;;;6.42
74043;BMP280;62384;53.600;10.040;2023-02-02T00:44:15;60267.72;;;6.45
74043;BMP280;62384;53.600;10.040;2023-02-02T00:46:59;60443.84;;;6.42
74043;BMP280;62384;53.600;10.040;2023-02-02T00:49:24;61049.56;;;6.43
74043;BMP280;62384;53.600;10.040;2023-02-02T00:51:49;60773.47;;;6.46
74043;BMP280;62384;53.600;10.040;2023-02-02T00:54:14;61598.94;;;6.46
74043;BMP280;62384;53.600;10.040;2023-02-02T00:56:40;60800.22;;;6.47
74043;BMP280;62384;53.600;10.040;2023-02-02T00:59:06;60184.00;;;6.46
74043;BMP280;62384;53.600;10.040;2023-02-02T01:01:31;60517.91;;;6.43
74043;BMP280;62384;53.600;10.040;2023-02-02T01:03:56;60687.53;;;6.44
74043;BMP280;62384;53.600;10.040;2023-02-02T01:06:23;60736.47;;;6.34
74043;BMP280;62384;53.600;10.040;2023-02-02T01:08:48;60509.59;;;6.42
74043;BMP280;62384;53.600;10.040;2023-02-02T01:11:14;60043.31;;;6.41
74043;BMP280;62384;53.600;10.040;2023-02-02T01:13:40;60123.47;;;6.34
74043;BMP280;62384;53.600;10.040;2023-02-02T01:16:05;60479.69;;;6.35
74043;BMP280;62384;53.600;10.040;2023-02-02T01:18:31;59887.31;;;6.31
74043;BMP280;62384;53.600;10.040;2023-02-02T01:23:22;59995.06;;;6.31
74043;BMP280;62384;53.600;10.040;2023-02-02T01:25:59;59574.09;;;6.28
74043;BMP280;62384;53.600;10.040;2023-02-02T01:28:25;59716.03;;;6.22
74043;BMP280;62384;53.600;10.040;2023-02-02T01:30:51;59112.59;;;6.19
74043;BMP280;62384;53.600;10.040;2023-02-02T01:33:17;58811.84;;;6.15
74043;BMP280;62384;53.600;10.040;2023-02-02T01:35:50;59055.78;;;6.08
74043;BMP280;62384;53.600;10.040;2023-02-02T01:38:16;58614.13;;;6.08
74043;BMP280;62384;53.600;10.040;2023-02-02T01:40:46;58069.84;;;6.16
74043;BMP280;62384;53.600;10.040;2023-02-02T01:43:26;56493.72;;;6.09
74043;BMP280;62384;53.600;10.040;2023-02-02T01:45:53;55922.66;;;6.07
74043;BMP280;62384;53.600;10.040;2023-02-02T01:48:22;55239.78;;;6.06
74043;BMP280;62384;53.600;10.040;2023-02-02T01:50:52;54771.44;;;5.97
74043;BMP280;62384;53.600;10.040;2023-02-02T01:53:19;54475.25;;;6.01
74043;BMP280;62384;53.600;10.040;2023-02-02T01:55:46;55255.78;;;5.96
74043;BMP280;62384;53.600;10.040;2023-02-02T01:58:22;56184.03;;;5.86
74043;BMP280;62384;53.600;10.040;2023-02-02T02:00:49;56200.13;;;5.80
74043;BMP280;62384;53.600;10.040;2023-02-02T02:03:17;55768.22;;;5.88
74043;BMP280;62384;53.600;10.040;2023-02-02T02:05:58;55963.13;;;5.89
74043;BMP280;62384;53.600;10.040;2023-02-02T02:08:26;56838.91;;;5.98
74043;BMP280;62384;53.600;10.040;2023-02-02T02:10:51;57617.97;;;5.97
74043;BMP280;62384;53.600;10.040;2023-02-02T02:13:18;58422.66;;;5.96
74043;BMP280;62384;53.600;10.040;2023-02-02T02:16:00;57793.84;;;5.97
74043;BMP280;62384;53.600;10.040;2023-02-02T02:22:03;57783.13;;;5.91
74043;BMP280;62384;53.600;10.040;2023-02-02T02:28:25;56910.72;;;5.86
74043;BMP280;62384;53.600;10.040;2023-02-02T02:33:56;55592.09;;;5.81
74043;BMP280;62384;53.600;10.040;2023-02-02T02:39:44;54785.25;;;5.72
74043;BMP280;62384;53.600;10.040;2023-02-02T02:42:20;54531.03;;;5.72
74043;BMP280;62384;53.600;10.040;2023-02-02T02:44:48;54521.34;;;5.73
74043;BMP280;62384;53.600;10.040;2023-02-02T02:47:13;54570.50;;;5.75
74043;BMP280;62384;53.600;10.040;2023-02-02T02:49:44;54752.78;;;5.74
74043;BMP280;62384;53.600;10.040;2023-02-02T02:52:09;54655.38;;;5.73
74043;BMP280;62384;53.600;10.040;2023-02-02T02:54:40;54926.81;;;5.72
74043;BMP280;62384;53.600;10.040;2023-02-02T02:57:39;55371.03;;;5.80
74043;BMP280;62384;53.600;10.040;2023-02-02T03:06:15;56246.25;;;5.92
74043;BMP280;62384;53.600;10.040;2023-02-02T03:08:57;56399.63;;;5.93
74043;BMP280;62384;53.600;10.040;2023-02-02T03:11:24;56639.50;;;5.88
74043;BMP280;62384;53.600;10.040;2023-02-02T03:13:49;57235.91;;;6.02
74043;BMP280;62384;53.600;10.040;2023-02-02T03:16:15;57440.53;;;6.05
74043;BMP280;62384;53.600;10.040;2023-02-02T03:18:40;56424.66;;;6.08
74043;BMP280;62384;53.600;10.040;2023-02-02T03:21:06;57082.59;;;6.07
74043;BMP280;62384;53.600;10.040;2023-02-02T03:23:32;57366.50;;;6.07
74043;BMP280;62384;53.600;10.040;2023-02-02T03:25:57;55433.94;;;5.99
74043;BMP280;62384;53.600;10.040;2023-02-02T03:28:24;54317.69;;;5.74
74043;BMP280;62384;53.600;10.040;2023-02-02T03:30:50;53625.31;;;5.66
74043;BMP280;62384;53.600;10.040;2023-02-02T03:33:16;54030.75;;;5.69
74043;BMP280;62384;53.600;10.040;2023-02-02T03:35:43;53942.16;;;5.73
74043;BMP280;62384;53.600;10.040;2023-02-02T03:38:08;55084.00;;;5.85
74043;BMP280;62384;53.600;10.040;2023-02-02T03:40:34;55498.28;;;5.91
74043;BMP280;62384;53.600;10.040;2023-02-02T03:43:00;55422.63;;;5.92
74043;BMP280;62384;53.600;10.040;2023-02-02T03:45:29;55421.41;;;5.97
74043;BMP280;62384;53.600;10.040;2023-02-02T03:47:56;54925.81;;;5.90
74043;BMP280;62384;53.600;10.040;2023-02-02T03:50:22;55819.28;;;5.89
74043;BMP280;62384;53.600;10.040;2023-02-02T03:52:49;55841.06;;;5.90
74043;BMP280;62384;53.600;10.040;2023-02-02T03:55:14;55618.53;;;5.91
74043;BMP280;62384;53.600;10.040;2023-02-02T03:57:39;56019.84;;;5.91
74043;BMP280;62384;53.600;10.040;2023-02-02T04:00:05;56345.63;;;5.98
74043;BMP280;62384;53.600;10.040;2023-02-02T04:02:30;55983.75;;;5.95
74043;BMP280;62384;53.600;10.040;2023-02-02T04:04:56;56007.31;;;5.88
74043;BMP280;62384;53.600;10.040;2023-02-02T04:07:21;56471.78;;;5.85
74043;BMP280;62384;53.600;10.040;2023-02-02T04:09:46;57105.84;;;5.84
74043;BMP280;62384;53.600;10.040;2023-02-02T04:12:12;57808.38;;;5.80
74043;BMP280;62384;53.600;10.040;2023-02-02T04:14:37;57933.06;;;5.79
74043;BMP280;62384;53.600;10.040;2023-02-02T04:17:02;58034.16;;;5.77
74043;BMP280;62384;53.600;10.040;2023-02-02T04:19:27;58116.28;;;5.81
74043;BMP280;62384;53.600;10.040;2023-02-02T04:21:53;58485.41;;;5.86
74043;BMP280;62384;53.600;10.040;2023-02-02T04:24:18;58310.81;;;5.88
74043;BMP280;62384;53.600;10.040;2023-02-02T04:26:43;58059.22;;;5.88
74043;BMP280;62384;53.600;10.040;2023-02-02T04:29:09;57638.84;;;5.88
74043;BMP280;62384;53.600;10.040;2023-02-02T04:31:35;57454.31;;;5.87
74043;BMP280;62384;53.600;10.040;2023-02-02T04:34:00;57754.44;;;5.85
74043;BMP280;62384;53.600;10.040;2023-02-02T04:36:26;58150.91;;;5.79
74043;BMP280;62384;53.600;10.040;2023-02-02T04:38:52;56900.78;;;5.74
74043;BMP280;62384;53.600;10.040;2023-02-02T04:41:18;55665.28;;;5.71
74043;BMP280;62384;53.600;10.040;2023-02-02T04:43:44;55373.91;;;5.64
74043;BMP280;62384;53.600;10.040;2023-02-02T04:46:10;55519.09;;;5.62
74043;BMP280;62384;53.600;10.040;2023-02-02T04:48:35;54931.38;;;5.57
74043;BMP280;62384;53.600;10.040;2023-02-02T04:51:03;54090.13;;;5.64
74043;BMP280;62384;53.600;10.040;2023-02-02T04:53:29;53156.34;;;5.63
74043;BMP280;62384;53.600;10.040;2023-02-02T04:55:55;52610.91;;;5.69
74043;BMP280;62384;53.600;10.040;2023-02-02T04:58:20;52477.69;;;5.66
74043;BMP280;62384;53.600;10.040;2023-02-02T05:00:46;52336.25;;;5.62
74043;BMP280;62384;53.600;10.040;2023-02-02T05:03:11;52768.81;;;5.70
74043;BMP280;62384;53.600;10.040;2023-02-02T05:05:36;53032.22;;;5.68
74043;BMP280;62384;53.600;10.040;2023-02-02T05:08:02;52527.53;;;5.76
74043;BMP280;62384;53.600;10.040;2023-02-02T05:10:27;52061.34;;;5.80
74043;BMP280;62384;53.600;10.040;2023-02-02T05:12:53;53263.63;;;5.76
74043;BMP280;62384;53.600;10.040;2023-02-02T05:15:19;53194.81;;;5.79
74043;BMP280;62384;53.600;10.040;2023-02-02T05:17:45;52226.69;;;5.73
74043;BMP280;62384;53.600;10.040;2023-02-02T05:20:11;51778.53;;;5.73
74043;BMP280;62384;53.600;10.040;2023-02-02T05:22:36;52853.75;;;5.71
74043;BMP280;62384;53.600;10.040;2023-02-02T05:25:02;53876.72;;;5.63
74043;BMP280;62384;53.600;10.040;2023-02-02T05:27:27;54400.47;;;5.55
74043;BMP280;62384;53.600;10.040;2023-02-02T05:29:52;54010.13;;;5.55
74043;BMP280;62384;53.600;10.040;2023-02-02T05:32:18;55029.78;;;5.56
74043;BMP280;62384;53.600;10.040;2023-02-02T05:34:43;55336.81;;;5.56
74043;BMP280;62384;53.600;10.040;2023-02-02T05:37:08;55325.13;;;5.55
74043;BMP280;62384;53.600;10.040;2023-02-02T05:39:33;55441.47;;;5.46
74043;BMP280;62384;53.600;10.040;2023-02-02T05:41:59;54797.66;;;5.47
74043;BMP280;62384;53.600;10.040;2023-02-02T05:44:24;53886.78;;;5.48
74043;BMP280;62384;53.600;10.040;2023-02-02T05:46:49;53324.28;;;5.42
74043;BMP280;62384;53.600;10.040;2023-02-02T05:49:15;53066.84;;;5.58
74043;BMP280;62384;53.600;10.040;2023-02-02T05:51:46;53274.66;;;5.67
74043;BMP280;62384;53.600;10.040;2023-02-02T05:54:12;52858.63;;;5.71
74043;BMP280;62384;53.600;10.040;2023-02-02T05:56:41;52689.88;;;5.69
74043;BMP280;62384;53.600;10.040;2023-02-02T05:59:06;53053.28;;;5.75
74043;BMP280;62384;53.600;10.040;2023-02-02T06:01:32;52981.06;;;5.77
74043;BMP280;62384;53.600;10.040;2023-02-02T06:03:57;53197.50;;;5.82
74043;BMP280;62384;53.600;10.040;2023-02-02T06:06:23;53860.38;;;5.79
74043;BMP280;62384;53.600;10.040;2023-02-02T06:08:48;54054.84;;;5.73
74043;BMP280;62384;53.600;10.040;2023-02-02T06:11:15;54164.38;;;5.79
74043;BMP280;62384;53.600;10.040;2023-02-02T06:13:41;54259.75;;;5.87
74043;BMP280;62384;53.600;10.040;2023-02-02T06:16:07;53889.97;;;5.80
74043;BMP280;62384;53.600;10.040;2023-02-02T06:18:33;54809.50;;;5.86
74043;BMP280;62384;53.600;10.040;2023-02-02T06:20:59;54735.44;;;5.88
74043;BMP280;62384;53.600;10.040;2023-02-02T06:23:26;54858.84;;;5.92
74043;BMP280;62384;53.600;10.040;2023-02-02T06:25:51;54878.78;;;5.94
74043;BMP280;62384;53.600;10.040;2023-02-02T06:28:16;55659.47;;;5.93
74043;BMP280;62384;53.600;10.040;2023-02-02T06:30:42;55101.50;;;5.90
74043;BMP280;62384;53.600;10.040;2023-02-02T06:33:07;55347.97;;;5.97
74043;BMP280;62384;53.600;10.040;2023-02-02T06:35:33;54903.97;;;5.96
74043;BMP280;62384;53.600;10.040;2023-02-02T06:37:58;55601.59;;;5.96
74043;BMP280;62384;53.600;10.040;2023-02-02T06:40:24;55229.72;;;6.00
74043;BMP280;62384;53.600;10.040;2023-02-02T06:42:55;54931.53;;;6.01
74043;BMP280;62384;53.600;10.040;2023-02-02T06:45:21;54642.69;;;6.00
74043;BMP280;62384;53.600;10.040;2023-02-02T06:47:47;54852.97;;;5.94
74043;BMP280;62384;53.600;10.040;2023-02-02T06:50:12;54739.41;;;5.93
74043;BMP280;62384;53.600;10.040;2023-02-02T06:52:37;54401.06;;;6.00
74043;BMP280;62384;53.600;10.040;2023-02-02T06:55:03;55381.47;;;5.99
74043;BMP280;62384;53.600;10.040;2023-02-02T06:57:29;55228.31;;;6.01
74043;BMP280;62384;53.600;10.040;2023-02-02T06:59:54;55563.66;;;5.94
74043;BMP280;62384;53.600;10.040;2023-02-02T07:02:19;56721.94;;;5.93
74043;BMP280;62384;53.600;10.040;2023-02-02T07:04:47;56349.53;;;5.90
74043;BMP280;62384;53.600;10.040;2023-02-02T07:07:13;57025.84;;;5.73
74043;BMP280;62384;53.600;10.040;2023-02-02T07:09:38;57244.72;;;5.78
74043;BMP280;62384;53.600;10.040;2023-02-02T07:12:04;57751.28;;;5.87
74043;BMP280;62384;53.600;10.040;2023-02-02T07:14:29;58528.25;;;5.87
74043;BMP280;62384;53.600;10.040;2023-02-02T07:16:55;58995.56;;;5.90
74043;BMP280;62384;53.600;10.040;2023-02-02T07:19:20;58690.16;;;5.86
74043;BMP280;62384;53.600;10.040;2023-02-02T07:21:45;59412.25;;;5.86
74043;BMP280;62384;53.600;10.040;2023-02-02T07:24:10;60451.06;;;5.85
74043;BMP280;62384;53.600;10.040;2023-02-02T07:26:36;61037.31;;;5.82
74043;BMP280;62384;53.600;10.040;2023-02-02T07:29:02;60740.31;;;5.76
74043;BMP280;62384;53.600;10.040;2023-02-02T07:31:28;60522.72;;;5.77
74043;BMP280;62384;53.600;10.040;2023-02-02T07:33:54;60094.16;;;5.70
74043;BMP280;62384;53.600;10.040;2023-02-02T07:36:21;59809.66;;;5.72
74043;BMP280;62384;53.600;10.040;2023-02-02T07:38:49;59549.72;;;5.72
74043;BMP280;62384;53.600;10.040;2023-02-02T07:41:15;59399.19;;;5.74
74043;BMP280;62384;53.600;10.040;2023-02-02T07:43:40;59055.72;;;5.72
74043;BMP280;62384;53.600;10.040;2023-02-02T07:46:07;58830.38;;;5.75
74043;BMP280;62384;53.600;10.040;2023-02-02T07:48:34;58822.88;;;5.79
74043;BMP280;62384;53.600;10.040;2023-02-02T07:51:03;58591.34;;;5.84
74043;BMP280;62384;53.600;10.040;2023-02-02T07:53:29;59049.38;;;5.95
74043;BMP280;62384;53.600;10.040;2023-02-02T07:56:18;59482.22;;;6.00
74043;BMP280;62384;53.600;10.040;2023-02-02T07:58:44;59231.38;;;6.02
74043;BMP280;62384;53.600;10.040;2023-02-02T08:01:12;59619.28;;;5.98
74043;BMP280;62384;53.600;10.040;2023-02-02T08:03:39;59197.31;;;5.96
74043;BMP280;62384;53.600;10.040;2023-02-02T08:08:39;58183.94;;;5.87
74043;BMP280;62384;53.600;10.040;2023-02-02T08:11:07;58545.84;;;5.83
74043;BMP280;62384;53.600;10.040;2023-02-02T08:13:34;58390.47;;;5.86
74043;BMP280;62384;53.600;10.040;2023-02-02T08:15:59;58436.38;;;5.87
74043;BMP280;62384;53.600;10.040;2023-02-02T08:18:24;58524.25;;;5.92
74043;BMP280;62384;53.600;10.040;2023-02-02T08:20:49;59062.50;;;5.95
74043;BMP280;62384;53.600;10.040;2023-02-02T08:23:16;58519.00;;;5.92
74043;BMP280;62384;53.600;10.040;2023-02-02T08:25:47;58729.88;;;5.96
74043;BMP280;62384;53.600;10.040;2023-02-02T08:28:12;58989.31;;;6.01
74043;BMP280;62384;53.600;10.040;2023-02-02T08:30:38;59746.69;;;6.11
74043;BMP280;62384;53.600;10.040;2023-02-02T08:33:03;60820.34;;;6.19
74043;BMP280;62384;53.600;10.040;2023-02-02T08:35:29;60854.97;;;6.19
74043;BMP280;62384;53.600;10.040;2023-02-02T08:37:54;61028.47;;;6.19
74043;BMP280;62384;53.600;10.040;2023-02-02T08:40:19;61568.38;;;6.20
74043;BMP280;62384;53.600;10.040;2023-02-02T08:42:45;62099.59;;;6.20
74043;BMP280;62384;53.600;10.040;2023-02-02T08:45:11;61644.72;;;6.09
74043;BMP280;62384;53.600;10.040;2023-02-02T08:47:37;61717.47;;;6.23
74043;BMP280;62384;53.600;10.040;2023-02-02T08:50:02;61002.31;;;6.26
74043;BMP280;62384;53.600;10.040;2023-02-02T08:52:27;62488.75;;;6.38
74043;BMP280;62384;53.600;10.040;2023-02-02T08:54:53;62582.03;;;6.45
74043;BMP280;62384;53.600;10.040;2023-02-02T08:57:18;63652.72;;;6.50
74043;BMP280;62384;53.600;10.040;2023-02-02T08:59:43;63839.03;;;6.60
74043;BMP280;62384;53.600;10.040;2023-02-02T09:02:11;64135.31;;;6.73
74043;BMP280;62384;53.600;10.040;2023-02-02T09:04:38;64954.94;;;6.93
74043;BMP280;62384;53.600;10.040;2023-02-02T09:07:05;65620.69;;;7.08
74043;BMP280;62384;53.600;10.040;2023-02-02T09:09:31;66515.38;;;7.46
74043;BMP280;62384;53.600;10.040;2023-02-02T09:11:56;66324.56;;;7.34
74043;BMP280;62384;53.600;10.040;2023-02-02T09:14:21;65927.88;;;7.12
74043;BMP280;62384;53.600;10.040;2023-02-02T09:16:47;65701.88;;;6.88
74043;BMP280;62384;53.600;10.040;2023-02-02T09:19:12;65763.81;;;6.78
74043;BMP280;62384;53.600;10.040;2023-02-02T09:21:37;66253.94;;;7.11
74043;BMP280;62384;53.600;10.040;2023-02-02T09:24:07;66367.38;;;7.11
74043;BMP280;62384;53.600;10.040;2023-02-02T09:26:33;67695.44;;;7.35
74043;BMP280;62384;53.600;10.040;2023-02-02T09:29:03;68229.03;;;7.43
74043;BMP280;62384;53.600;10.040;2023-02-02T09:31:32;68591.56;;;7.55
74043;BMP280;62384;53.600;10.040;2023-02-02T09:34:06;69179.84;;;7.69
74043;BMP280;62384;53.600;10.040;2023-02-02T09:36:32;69110.59;;;7.69
74043;BMP280;62384;53.600;10.040;2023-02-02T09:38:58;69372.63;;;8.00
74043;BMP280;62384;53.600;10.040;2023-02-02T09:55:38;151483.88;;;11.49
74043;BMP280;62384;53.600;10.040;2023-02-02T10:00:47;151814.69;;;11.41
74043;BMP280;62384;53.600;10.040;2023-02-02T10:03:23;152731.38;;;12.31
74043;BMP280;62384;53.600;10.040;2023-02-02T10:06:00;152324.88;;;12.07
74043;BMP280;62384;53.600;10.040;2023-02-02T10:08:33;153553.84;;;12.80
74043;BMP280;62384;53.600;10.040;2023-02-02T10:11:04;153557.50;;;12.82
74043;BMP280;62384;53.600;10.040;2023-02-02T10:13:34;154769.78;;;13.47
74043;BMP280;62384;53.600;10.040;2023-02-02T10:16:06;153652.81;;;13.21
74043;BMP280;62384;53.600;10.040;2023-02-02T10:18:50;154954.59;;;14.22
74043;BMP280;62384;53.600;10.040;2023-02-02T10:21:37;154694.72;;;14.60
74043;BMP280;62384;53.600;10.040;2023-02-02T10:24:12;156327.38;;;15.51
74043;BMP280;62384;53.600;10.040;2023-02-02T10:26:46;154770.91;;;14.91
74043;BMP280;62384;53.600;10.040;2023-02-02T10:29:31;154834.81;;;15.17
74043;BMP280;62384;53.600;10.040;2023-02-02T10:32:13;156543.44;;;16.38
74043;BMP280;62384;53.600;10.040;2023-02-02T10:43:20;149979.84;;;14.01
74043;BMP280;62384;53.600;10.040;2023-02-02T10:48:44;144693.34;;;10.85
74043;BMP280;62384;53.600;10.040;2023-02-02T10:51:26;144566.81;;;10.30
74043;BMP280;62384;53.600;10.040;2023-02-02T10:53:57;144487.56;;;9.95
74043;BMP280;62384;53.600;10.040;2023-02-02T10:58:59;146111.50;;;10.95
74043;BMP280;62384;53.600;10.040;2023-02-02T11:01:25;146527.09;;;11.23
74043;BMP280;62384;53.600;10.040;2023-02-02T11:03:50;144988.13;;;10.61
74043;BMP280;62384;53.600;10.040;2023-02-02T11:06:36;145302.25;;;10.46
74043;BMP280;62384;53.600;10.040;2023-02-02T11:09:14;144565.69;;;10.29
74043;BMP280;62384;53.600;10.040;2023-02-02T11:11:42;146701.34;;;10.48
74043;BMP280;62384;53.600;10.040;2023-02-02T11:14:14;147179.06;;;11.03
74043;BMP280;62384;53.600;10.040;2023-02-02T11:16:41;147995.50;;;11.54
74043;BMP280;62384;53.600;10.040;2023-02-02T11:19:29;144967.38;;;10.52
74043;BMP280;62384;53.600;10.040;2023-02-02T11:21:57;144535.84;;;10.16
74043;BMP280;62384;53.600;10.040;2023-02-02T11:24:45;144171.28;;;10.09
74043;BMP280;62384;53.600;10.040;2023-02-02T11:27:15;143767.94;;;9.85
74043;BMP280;62384;53.600;10.040;2023-02-02T11:29:45;143370.66;;;9.63
74043;BMP280;62384;53.600;10.040;2023-02-02T11:32:31;143372.91;;;9.64
74043;BMP280;62384;53.600;10.040;2023-02-02T11:37:29;142634.81;;;9.46
74043;BMP280;62384;53.600;10.040;2023-02-02T11:40:31;142228.09;;;9.19
74043;BMP280;62384;53.600;10.040;2023-02-02T11:43:01;144747.31;;;9.56
74043;BMP280;62384;53.600;10.040;2023-02-02T11:48:23;146041.81;;;10.64
74043;BMP280;62384;53.600;10.040;2023-02-02T11:50:50;144933.91;;;10.38
74043;BMP280;62384;53.600;10.040;2023-02-02T11:53:45;145281.47;;;10.37
74043;BMP280;62384;53.600;10.040;2023-02-02T11:56:21;145332.34;;;10.59
74043;BMP280;62384;53.600;10.040;2023-02-02T11:58:52;144573.75;;;10.33
74043;BMP280;62384;53.600;10.040;2023-02-02T12:03:47;144096.78;;;9.76
74043;BMP280;62384;53.600;10.040;2023-02-02T12:06:24;143765.63;;;9.84
74043;BMP280;62384;53.600;10.040;2023-02-02T12:08:56;143773.63;;;9.87
74043;BMP280;62384;53.600;10.040;2023-02-02T12:14:19;142247.31;;;9.28
74043;BMP280;62384;53.600;10.040;2023-02-02T12:16:58;142598.53;;;9.29
74043;BMP280;62384;53.600;10.040;2023-02-02T12:19:40;143342.16;;;9.51
74043;BMP280;62384;53.600;10.040;2023-02-02T12:27:42;144893.59;;;10.20
74043;BMP280;62384;53.600;10.040;2023-02-02T12:36:00;144572.59;;;10.32
74043;BMP280;62384;53.600;10.040;2023-02-02T12:41:29;144897.03;;;10.22
74043;BMP280;62384;53.600;10.040;2023-02-02T12:44:11;145676.63;;;10.57
74043;BMP280;62384;53.600;10.040;2023-02-02T12:49:24;144937.41;;;10.39
74043;BMP280;62384;53.600;10.040;2023-02-02T12:51:54;144582.94;;;10.37
74043;BMP280;62384;53.600;10.040;2023-02-02T12:54:54;143491.50;;;10.17
74043;BMP280;62384;53.600;10.040;2023-02-02T13:03:21;141923.25;;;9.38
74043;BMP280;62384;53.600;10.040;2023-02-02T13:08:44;142293.69;;;9.49
74043;BMP280;62384;53.600;10.040;2023-02-02T13:11:16;142275.59;;;9.40
74043;BMP280;62384;53.600;10.040;2023-02-02T13:13:58;142246.16;;;9.27
74043;BMP280;62384;53.600;10.040;2023-02-02T13:16:25;143337.59;;;9.49
74043;BMP280;62384;53.600;10.040;2023-02-02T13:18:57;142649.53;;;9.52
74043;BMP280;62384;53.600;10.040;2023-02-02T13:21:24;142997.53;;;9.52
74043;BMP280;62384;53.600;10.040;2023-02-02T13:23:55;142273.34;;;9.39
74043;BMP280;62384;53.600;10.040;2023-02-02T13:26:25;141511.34;;;9.10
74043;BMP280;62384;53.600;10.040;2023-02-02T13:31:43;140430.81;;;8.93
74043;BMP280;62384;53.600;10.040;2023-02-02T13:34:14;140770.34;;;8.89
74043;BMP280;62384;53.600;10.040;2023-02-02T13:36:46;142224.69;;;9.18
74043;BMP280;62384;53.600;10.040;2023-02-02T13:39:26;143000.91;;;9.54
74043;BMP280;62384;53.600;10.040;2023-02-02T13:41:54;142666.59;;;9.60
74043;BMP280;62384;53.600;10.040;2023-02-02T13:44:37;142664.31;;;9.59
74043;BMP280;62384;53.600;10.040;2023-02-02T13:47:15;142677.91;;;9.65
74043;BMP280;62384;53.600;10.040;2023-02-02T13:49:51;142656.34;;;9.55
74043;BMP280;62384;53.600;10.040;2023-02-02T13:55:34;143758.75;;;9.81
74043;BMP280;62384;53.600;10.040;2023-02-02T14:00:47;144541.59;;;10.19
74043;BMP280;62384;53.600;10.040;2023-02-02T14:03:27;144157.50;;;10.03
74043;BMP280;62384;53.600;10.040;2023-02-02T14:06:47;144157.50;;;10.03
74043;BMP280;62384;53.600;10.040;2023-02-02T14:09:16;144125.41;;;9.89
74043;BMP280;62384;53.600;10.040;2023-02-02T14:11:54;143785.09;;;9.92
74043;BMP280;62384;53.600;10.040;2023-02-02T14:14:44;143419.69;;;9.85
74043;BMP280;62384;53.600;10.040;2023-02-02T14:26:08;143404.84;;;9.78
74043;BMP280;62384;53.600;10.040;2023-02-02T14:28:41;143785.09;;;9.92
74043;BMP280;62384;53.600;10.040;2023-02-02T14:31:27;143421.97;;;9.86
74043;BMP280;62384;53.600;10.040;2023-02-02T14:45:41;140826.31;;;9.14
74043;BMP280;62384;53.600;10.040;2023-02-02T14:50:41;140468.75;;;9.10
74043;BMP280;62384;53.600;10.040;2023-02-02T14:56:17;140445.31;;;8.99
74043;BMP280;62384;53.600;10.040;2023-02-02T14:58:59;140076.75;;;8.90
74043;BMP280;62384;53.600;10.040;2023-02-02T15:01:28;140421.84;;;8.89
74043;BMP280;62384;53.600;10.040;2023-02-02T15:16:56;140047.84;;;8.77
74043;BMP280;62384;53.600;10.040;2023-02-02T15:19:32;140023.34;;;8.65
74043;BMP280;62384;53.600;10.040;2023-02-02T15:22:49;140014.41;;;8.61
74043;BMP280;62384;53.600;10.040;2023-02-02T15:24:55;140013.28;;;8.61
74043;BMP280;62384;53.600;10.040;2023-02-02T15:27:21;139650.69;;;8.54
74043;BMP280;62384;53.600;10.040;2023-02-02T15:29:52;139279.28;;;8.43
74043;BMP280;62384;53.600;10.040;2023-02-02T15:32:21;138916.88;;;8.36
74043;BMP280;62384;53.600;10.040;2023-02-02T15:34:52;138550.22;;;8.27
74043;BMP280;62384;53.600;10.040;2023-02-02T15:37:21;137843.59;;;8.21
74043;BMP280;62384;53.600;10.040;2023-02-02T15:39:51;137138.34;;;8.15
74043;BMP280;62384;53.600;10.040;2023-02-02T15:42:36;136442.09;;;8.14
74043;BMP280;62384;53.600;10.040;2023-02-02T15:45:39;135034.06;;;8.03
74043;BMP280;62384;53.600;10.040;2023-02-02T15:48:20;133634.56;;;7.96
74043;BMP280;62384;53.600;10.040;2023-02-02T15:50:47;132585.09;;;7.90
74043;BMP280;62384;53.600;10.040;2023-02-02T15:53:21;131194.63;;;7.87
74043;BMP280;62384;53.600;10.040;2023-02-02T15:55:46;128426.19;;;7.85
74043;BMP280;62384;53.600;10.040;2023-02-02T15:58:30;124271.00;;;7.78
74043;BMP280;62384;53.600;10.040;2023-02-02T16:00:59;122895.81;;;7.80
74043;BMP280;62384;53.600;10.040;2023-02-02T16:03:30;119431.19;;;7.69
74043;BMP280;62384;53.600;10.040;2023-02-02T16:05:58;112898.97;;;7.70
74043;BMP280;62384;53.600;10.040;2023-02-02T16:08:26;107527.97;;;7.64
74043;BMP280;62384;53.600;10.040;2023-02-02T16:13:37;97515.91;;;7.59
74043;BMP280;62384;53.600;10.040;2023-02-02T16:16:18;94564.78;;;7.57
74043;BMP280;62384;53.600;10.040;2023-02-02T16:18:44;93309.47;;;7.51
74043;BMP280;62384;53.600;10.040;2023-02-02T16:21:22;91180.75;;;7.43
74043;BMP280;62384;53.600;10.040;2023-02-02T16:23:50;87134.34;;;7.41
74043;BMP280;62384;53.600;10.040;2023-02-02T16:26:16;86016.69;;;7.40
74043;BMP280;62384;53.600;10.040;2023-02-02T16:28:46;84194.25;;;7.42
74043;BMP280;62384;53.600;10.040;2023-02-02T16:31:12;85111.34;;;7.40
74043;BMP280;62384;53.600;10.040;2023-02-02T16:33:43;84774.78;;;7.37
74043;BMP280;62384;53.600;10.040;2023-02-02T16:36:26;84447.22;;;7.42
74043;BMP280;62384;53.600;10.040;2023-02-02T16:38:54;84324.91;;;7.30